sensor_id;sensor_type;location;lat;lon;timestamp;pressure;altitude;pressure_sealevel;temperature;humidity
68179;BME280;54998;42.656;23.382;2023-03-18T00:02:18;95294.56;;;-2.10;78.51
68179;BME280;54998;42.656;23.382;2023-03-18T00:04:44;95280.50;;;-2.16;78.86
68179;BME280;54998;42.656;23.382;2023-03-18T00:07:10;95272.06;;;-2.15;78.77
68179;BME280;54998;42.656;23.382;2023-03-18T00:09:36;95284.59;;;-2.13;78.76
68179;BME280;54998;42.656;23.382;2023-03-18T00:12:02;95273.16;;;-2.22;78.92
68179;BME280;54998;42.656;23.382;2023-03-18T00:14:28;95270.56;;;-2.19;79.31
68179;BME280;54998;42.656;23.382;2023-03-18T00:16:54;95275.66;;;-2.20;79.35
68179;BME280;54998;42.656;23.382;2023-03-18T00:19:20;95277.44;;;-2.24;79.39
68179;BME280;54998;42.656;23.382;2023-03-18T00:21:46;95267.44;;;-2.25;79.35
68179;BME280;54998;42.656;23.382;2023-03-18T00:24:11;95267.06;;;-2.15;78.89
68179;BME280;54998;42.656;23.382;2023-03-18T00:26:37;95264.13;;;-2.02;77.12
68179;BME280;54998;42.656;23.382;2023-03-18T00:29:02;95264.13;;;-2.02;76.72
68179;BME280;54998;42.656;23.382;2023-03-18T00:31:28;95264.03;;;-1.99;76.56
68179;BME280;54998;42.656;23.382;2023-03-18T00:33:54;95263.47;;;-1.84;75.69
68179;BME280;54998;42.656;23.382;2023-03-18T00:36:20;95254.69;;;-1.74;76.14
68179;BME280;54998;42.656;23.382;2023-03-18T00:38:53;95251.50;;;-1.77;75.28
68179;BME280;54998;42.656;23.382;2023-03-18T00:41:23;95252.44;;;-1.80;74.74
68179;BME280;54998;42.656;23.382;2023-03-18T00:43:50;95246.03;;;-1.89;74.82
68179;BME280;54998;42.656;23.382;2023-03-18T00:46:27;95242.88;;;-1.95;74.97
68179;BME280;54998;42.656;23.382;2023-03-18T00:48:55;95239.69;;;-1.99;75.19
68179;BME280;54998;42.656;23.382;2023-03-18T00:51:22;95243.19;;;-2.03;75.38
68179;BME280;54998;42.656;23.382;2023-03-18T00:53:49;95233.16;;;-2.04;75.44
68179;BME280;54998;42.656;23.382;2023-03-18T00:56:17;95230.69;;;-2.06;75.77
68179;BME280;54998;42.656;23.382;2023-03-18T00:58:44;95220.88;;;-2.12;75.99
68179;BME280;54998;42.656;23.382;2023-03-18T01:01:10;95224.38;;;-2.16;76.03
68179;BME280;54998;42.656;23.382;2023-03-18T01:03:37;95224.59;;;-2.22;76.71
68179;BME280;54998;42.656;23.382;2023-03-18T01:06:06;95226.97;;;-2.19;77.05
68179;BME280;54998;42.656;23.382;2023-03-18T01:08:32;95225.59;;;-2.28;77.30
68179;BME280;54998;42.656;23.382;2023-03-18T01:10:57;95228.28;;;-2.33;77.80
68179;BME280;54998;42.656;23.382;2023-03-18T01:13:24;95226.75;;;-2.37;77.79
68179;BME280;54998;42.656;23.382;2023-03-18T01:16:02;95215.63;;;-2.30;77.69
68179;BME280;54998;42.656;23.382;2023-03-18T01:18:29;95219.22;;;-2.37;77.62
68179;BME280;54998;42.656;23.382;2023-03-18T01:20:55;95207.00;;;-2.48;77.70
68179;BME280;54998;42.656;23.382;2023-03-18T01:23:21;95213.31;;;-2.36;77.49
68179;BME280;54998;42.656;23.382;2023-03-18T01:25:47;95209.28;;;-2.40;77.29
68179;BME280;54998;42.656;23.382;2023-03-18T01:28:13;95212.81;;;-2.45;77.47
68179;BME280;54998;42.656;23.382;2023-03-18T01:30:39;95206.97;;;-2.46;77.16
68179;BME280;54998;42.656;23.382;2023-03-18T01:33:05;95206.19;;;-2.48;77.23
68179;BME280;54998;42.656;23.382;2023-03-18T01:35:32;95210.50;;;-2.52;77.20
68179;BME280;54998;42.656;23.382;2023-03-18T01:37:57;95202.31;;;-2.57;77.44
68179;BME280;54998;42.656;23.382;2023-03-18T01:40:24;95203.25;;;-2.59;77.60
68179;BME280;54998;42.656;23.382;2023-03-18T01:42:59;95204.78;;;-2.55;77.51
68179;BME280;54998;42.656;23.382;2023-03-18T01:45:29;95194.16;;;-2.63;77.70
68179;BME280;54998;42.656;23.382;2023-03-18T01:47:56;95201.53;;;-2.59;77.84
68179;BME280;54998;42.656;23.382;2023-03-18T01:50:33;95201.47;;;-2.56;77.68
68179;BME280;54998;42.656;23.382;2023-03-18T01:53:03;95199.03;;;-2.59;77.62
68179;BME280;54998;42.656;23.382;2023-03-18T01:55:31;95201.34;;;-2.53;77.62
68179;BME280;54998;42.656;23.382;2023-03-18T01:57:58;95194.59;;;-2.52;77.42
68179;BME280;54998;42.656;23.382;2023-03-18T02:00:26;95192.31;;;-2.58;77.74
68179;BME280;54998;42.656;23.382;2023-03-18T02:02:53;95196.25;;;-2.51;77.25
68179;BME280;54998;42.656;23.382;2023-03-18T02:05:22;95188.59;;;-2.48;77.03
68179;BME280;54998;42.656;23.382;2023-03-18T02:07:49;95191.25;;;-2.51;76.98
68179;BME280;54998;42.656;23.382;2023-03-18T02:10:24;95183.03;;;-2.56;76.91
68179;BME280;54998;42.656;23.382;2023-03-18T02:12:55;95175.31;;;-2.52;76.92
68179;BME280;54998;42.656;23.382;2023-03-18T02:15:23;95193.59;;;-2.46;76.76
68179;BME280;54998;42.656;23.382;2023-03-18T02:18:03;95188.81;;;-2.54;77.17
68179;BME280;54998;42.656;23.382;2023-03-18T02:26:19;95192.78;;;-2.47;76.69
68179;BME280;54998;42.656;23.382;2023-03-18T02:28:49;95195.94;;;-2.42;76.33
68179;BME280;54998;42.656;23.382;2023-03-18T02:31:17;95203.34;;;-2.39;76.19
68179;BME280;54998;42.656;23.382;2023-03-18T02:33:43;95185.38;;;-2.52;76.24
68179;BME280;54998;42.656;23.382;2023-03-18T02:36:17;95194.88;;;-2.60;76.94
68179;BME280;54998;42.656;23.382;2023-03-18T02:38:44;95194.16;;;-2.63;77.04
68179;BME280;54998;42.656;23.382;2023-03-18T02:41:16;95188.16;;;-2.59;76.85
68179;BME280;54998;42.656;23.382;2023-03-18T02:43:42;95194.47;;;-2.73;77.32
68179;BME280;54998;42.656;23.382;2023-03-18T02:48:42;95180.78;;;-2.89;78.25
68179;BME280;54998;42.656;23.382;2023-03-18T02:51:10;95180.84;;;-2.91;78.43
68179;BME280;54998;42.656;23.382;2023-03-18T02:53:36;95185.97;;;-2.94;78.74
68179;BME280;54998;42.656;23.382;2023-03-18T02:56:02;95184.34;;;-2.95;78.74
68179;BME280;54998;42.656;23.382;2023-03-18T02:58:28;95181.88;;;-2.96;78.97
68179;BME280;54998;42.656;23.382;2023-03-18T03:00:54;95180.78;;;-2.89;78.82
68179;BME280;54998;42.656;23.382;2023-03-18T03:03:20;95174.84;;;-2.86;79.01
68179;BME280;54998;42.656;23.382;2023-03-18T03:05:46;95189.53;;;-2.76;78.57
68179;BME280;54998;42.656;23.382;2023-03-18T03:08:11;95180.53;;;-2.81;78.59
68179;BME280;54998;42.656;23.382;2023-03-18T03:10:37;95186.59;;;-2.87;78.69
68179;BME280;54998;42.656;23.382;2023-03-18T03:13:02;95185.16;;;-2.94;79.15
68179;BME280;54998;42.656;23.382;2023-03-18T03:15:28;95190.19;;;-2.94;79.02
68179;BME280;54998;42.656;23.382;2023-03-18T03:17:54;95190.75;;;-2.86;79.07
68179;BME280;54998;42.656;23.382;2023-03-18T03:20:20;95184.19;;;-2.90;78.61
68179;BME280;54998;42.656;23.382;2023-03-18T03:22:46;95181.47;;;-2.84;78.16
68179;BME280;54998;42.656;23.382;2023-03-18T03:25:12;95193.09;;;-2.81;78.05
68179;BME280;54998;42.656;23.382;2023-03-18T03:27:39;95193.91;;;-2.81;78.08
68179;BME280;54998;42.656;23.382;2023-03-18T03:30:09;95198.47;;;-2.92;78.15
68179;BME280;54998;42.656;23.382;2023-03-18T03:32:35;95195.03;;;-2.90;78.43
68179;BME280;54998;42.656;23.382;2023-03-18T03:35:01;95199.34;;;-2.93;78.48
68179;BME280;54998;42.656;23.382;2023-03-18T03:37:26;95201.69;;;-2.89;78.42
68179;BME280;54998;42.656;23.382;2023-03-18T03:39:52;95199.44;;;-2.96;78.43
68179;BME280;54998;42.656;23.382;2023-03-18T03:42:18;95202.00;;;-2.98;78.51
68179;BME280;54998;42.656;23.382;2023-03-18T03:44:43;95209.66;;;-3.01;78.74
68179;BME280;54998;42.656;23.382;2023-03-18T03:47:10;95206.25;;;-3.00;78.90
68179;BME280;54998;42.656;23.382;2023-03-18T03:49:35;95198.88;;;-3.04;79.23
68179;BME280;54998;42.656;23.382;2023-03-18T03:52:00;95198.78;;;-3.01;79.32
68179;BME280;54998;42.656;23.382;2023-03-18T03:54:26;95198.78;;;-3.01;79.24
68179;BME280;54998;42.656;23.382;2023-03-18T03:56:51;95204.50;;;-2.98;79.44
68179;BME280;54998;42.656;23.382;2023-03-18T03:59:17;95202.78;;;-2.96;79.51
68179;BME280;54998;42.656;23.382;2023-03-18T04:01:42;95208.72;;;-2.98;79.27
68179;BME280;54998;42.656;23.382;2023-03-18T04:04:08;95211.81;;;-2.90;79.08
68179;BME280;54998;42.656;23.382;2023-03-18T04:06:34;95204.88;;;-2.83;78.32
68179;BME280;54998;42.656;23.382;2023-03-18T04:08:59;95213.44;;;-2.89;77.96
68179;BME280;54998;42.656;23.382;2023-03-18T04:11:25;95215.59;;;-3.03;77.62
68179;BME280;54998;42.656;23.382;2023-03-18T04:13:50;95223.22;;;-3.06;77.95
68179;BME280;54998;42.656;23.382;2023-03-18T04:16:15;95226.78;;;-3.14;78.04
68179;BME280;54998;42.656;23.382;2023-03-18T04:18:41;95231.81;;;-3.14;78.14
68179;BME280;54998;42.656;23.382;2023-03-18T04:21:06;95231.03;;;-3.16;78.38
68179;BME280;54998;42.656;23.382;2023-03-18T04:23:32;95237.03;;;-3.20;78.54
68179;BME280;54998;42.656;23.382;2023-03-18T04:25:58;95235.44;;;-3.22;78.80
68179;BME280;54998;42.656;23.382;2023-03-18T04:28:24;95243.78;;;-3.22;78.87
68179;BME280;54998;42.656;23.382;2023-03-18T04:30:51;95239.72;;;-3.26;79.17
68179;BME280;54998;42.656;23.382;2023-03-18T04:33:17;95248.13;;;-3.27;79.29
68179;BME280;54998;42.656;23.382;2023-03-18T04:35:43;95248.94;;;-3.26;79.59
68179;BME280;54998;42.656;23.382;2023-03-18T04:38:09;95249.09;;;-3.31;79.80
68179;BME280;54998;42.656;23.382;2023-03-18T04:40:35;95244.88;;;-3.31;80.07
68179;BME280;54998;42.656;23.382;2023-03-18T04:43:00;95254.94;;;-3.31;80.43
68179;BME280;54998;42.656;23.382;2023-03-18T04:45:26;95251.56;;;-3.29;80.48
68179;BME280;54998;42.656;23.382;2023-03-18T04:47:51;95258.06;;;-3.24;80.71
68179;BME280;54998;42.656;23.382;2023-03-18T04:50:17;95256.28;;;-2.94;80.79
68179;BME280;54998;42.656;23.382;2023-03-18T04:52:43;95261.13;;;-2.37;80.00
68179;BME280;54998;42.656;23.382;2023-03-18T04:55:10;95257.16;;;-1.72;78.55
68179;BME280;54998;42.656;23.382;2023-03-18T04:57:37;95261.22;;;-1.02;75.86
68179;BME280;54998;42.656;23.382;2023-03-18T05:00:08;95261.47;;;-0.45;72.64
68179;BME280;54998;42.656;23.382;2023-03-18T05:02:36;95265.22;;;-0.14;71.10
68179;BME280;54998;42.656;23.382;2023-03-18T05:05:01;95254.88;;;0.30;68.16
68179;BME280;54998;42.656;23.382;2023-03-18T05:07:27;95258.84;;;0.54;66.53
68179;BME280;54998;42.656;23.382;2023-03-18T05:09:52;95248.53;;;1.13;64.62
68179;BME280;54998;42.656;23.382;2023-03-18T05:12:18;95257.25;;;1.59;62.88
68179;BME280;54998;42.656;23.382;2023-03-18T05:14:44;95247.22;;;2.72;59.36
68179;BME280;54998;42.656;23.382;2023-03-18T05:17:11;95248.34;;;3.73;56.23
68179;BME280;54998;42.656;23.382;2023-03-18T05:19:44;95240.03;;;4.00;53.45
68179;BME280;54998;42.656;23.382;2023-03-18T05:22:11;95236.81;;;4.25;52.61
68179;BME280;54998;42.656;23.382;2023-03-18T05:24:38;95242.94;;;4.08;52.58
68179;BME280;54998;42.656;23.382;2023-03-18T05:27:04;95243.19;;;4.03;52.78
68179;BME280;54998;42.656;23.382;2023-03-18T05:29:30;95244.63;;;3.79;54.03
68179;BME280;54998;42.656;23.382;2023-03-18T05:31:56;95224.72;;;5.64;50.08
68179;BME280;54998;42.656;23.382;2023-03-18T05:34:21;95234.78;;;5.91;47.26
68179;BME280;54998;42.656;23.382;2023-03-18T05:36:47;95237.09;;;6.83;43.81
68179;BME280;54998;42.656;23.382;2023-03-18T05:39:13;95238.38;;;7.83;41.74
68179;BME280;54998;42.656;23.382;2023-03-18T05:41:38;95229.59;;;8.55;40.34
68179;BME280;54998;42.656;23.382;2023-03-18T05:44:04;95227.31;;;9.70;38.64
68179;BME280;54998;42.656;23.382;2023-03-18T05:46:30;95231.69;;;9.79;36.14
68179;BME280;54998;42.656;23.382;2023-03-18T05:48:55;95238.75;;;9.12;38.32
68179;BME280;54998;42.656;23.382;2023-03-18T05:51:21;95242.34;;;8.10;39.24
68179;BME280;54998;42.656;23.382;2023-03-18T05:53:46;95242.81;;;8.26;39.87
68179;BME280;54998;42.656;23.382;2023-03-18T05:56:12;95253.31;;;9.44;37.99
68179;BME280;54998;42.656;23.382;2023-03-18T05:58:39;95263.50;;;8.12;39.98
68179;BME280;54998;42.656;23.382;2023-03-18T06:01:04;95248.59;;;10.33;37.40
68179;BME280;54998;42.656;23.382;2023-03-18T06:03:32;95253.69;;;11.63;34.06
68179;BME280;54998;42.656;23.382;2023-03-18T06:05:59;95250.88;;;10.67;36.61
68179;BME280;54998;42.656;23.382;2023-03-18T06:08:26;95255.50;;;10.42;37.06
68179;BME280;54998;42.656;23.382;2023-03-18T06:10:51;95248.34;;;12.50;32.98
68179;BME280;54998;42.656;23.382;2023-03-18T06:13:17;95246.00;;;12.57;32.04
68179;BME280;54998;42.656;23.382;2023-03-18T06:15:43;95242.59;;;13.84;31.16
68179;BME280;54998;42.656;23.382;2023-03-18T06:18:09;95250.81;;;14.05;30.06
68179;BME280;54998;42.656;23.382;2023-03-18T06:20:35;95257.28;;;10.92;35.25
68179;BME280;54998;42.656;23.382;2023-03-18T06:23:00;95252.06;;;11.33;34.83
68179;BME280;54998;42.656;23.382;2023-03-18T06:25:26;95251.28;;;12.28;34.55
68179;BME280;54998;42.656;23.382;2023-03-18T06:27:51;95248.56;;;12.67;33.11
68179;BME280;54998;42.656;23.382;2023-03-18T06:30:17;95239.75;;;14.98;30.08
68179;BME280;54998;42.656;23.382;2023-03-18T06:32:43;95243.41;;;15.54;29.16
68179;BME280;54998;42.656;23.382;2023-03-18T06:35:10;95239.38;;;14.68;28.95
68179;BME280;54998;42.656;23.382;2023-03-18T06:37:36;95234.94;;;15.03;29.62
68179;BME280;54998;42.656;23.382;2023-03-18T06:40:02;95229.31;;;16.14;27.59
68179;BME280;54998;42.656;23.382;2023-03-18T06:42:28;95223.28;;;14.22;30.85
68179;BME280;54998;42.656;23.382;2023-03-18T06:44:53;95217.38;;;14.30;30.71
68179;BME280;54998;42.656;23.382;2023-03-18T06:47:19;95221.13;;;14.44;29.83
68179;BME280;54998;42.656;23.382;2023-03-18T06:49:46;95228.66;;;15.06;29.62
68179;BME280;54998;42.656;23.382;2023-03-18T06:52:12;95221.78;;;13.41;31.67
68179;BME280;54998;42.656;23.382;2023-03-18T06:54:38;95223.28;;;14.14;30.30
68179;BME280;54998;42.656;23.382;2023-03-18T06:57:04;95222.44;;;13.25;31.90
68179;BME280;54998;42.656;23.382;2023-03-18T06:59:30;95225.28;;;12.59;32.93
68179;BME280;54998;42.656;23.382;2023-03-18T07:01:56;95222.91;;;14.09;30.97
68179;BME280;54998;42.656;23.382;2023-03-18T07:04:22;95228.34;;;13.53;31.73
68179;BME280;54998;42.656;23.382;2023-03-18T07:06:48;95219.94;;;15.23;30.18
68179;BME280;54998;42.656;23.382;2023-03-18T07:09:14;95223.53;;;13.59;32.31
68179;BME280;54998;42.656;23.382;2023-03-18T07:11:39;95228.31;;;14.92;30.55
68179;BME280;54998;42.656;23.382;2023-03-18T07:14:05;95225.53;;;13.29;32.46
68179;BME280;54998;42.656;23.382;2023-03-18T07:16:30;95224.13;;;13.52;32.49
68179;BME280;54998;42.656;23.382;2023-03-18T07:18:55;95217.75;;;13.83;31.50
68179;BME280;54998;42.656;23.382;2023-03-18T07:21:24;95220.41;;;14.25;31.67
68179;BME280;54998;42.656;23.382;2023-03-18T07:23:49;95223.09;;;13.45;32.79
68179;BME280;54998;42.656;23.382;2023-03-18T07:26:16;95222.38;;;11.77;35.53
68179;BME280;54998;42.656;23.382;2023-03-18T07:28:41;95230.00;;;13.27;34.41
68179;BME280;54998;42.656;23.382;2023-03-18T07:31:07;95219.41;;;13.12;33.62
68179;BME280;54998;42.656;23.382;2023-03-18T07:33:33;95234.75;;;14.54;32.38
68179;BME280;54998;42.656;23.382;2023-03-18T07:35:58;95227.50;;;13.71;33.18
68179;BME280;54998;42.656;23.382;2023-03-18T07:38:24;95229.16;;;12.35;34.94
68179;BME280;54998;42.656;23.382;2023-03-18T07:40:50;95233.19;;;12.47;35.24
68179;BME280;54998;42.656;23.382;2023-03-18T07:43:15;95227.94;;;12.67;35.21
68179;BME280;54998;42.656;23.382;2023-03-18T07:45:42;95230.75;;;12.08;35.66
68179;BME280;54998;42.656;23.382;2023-03-18T07:48:07;95231.94;;;12.24;35.88
68179;BME280;54998;42.656;23.382;2023-03-18T07:50:33;95235.03;;;13.28;34.92
68179;BME280;54998;42.656;23.382;2023-03-18T07:52:58;95234.00;;;15.20;30.62
68179;BME280;54998;42.656;23.382;2023-03-18T07:55:24;95228.41;;;14.48;31.47
68179;BME280;54998;42.656;23.382;2023-03-18T07:57:50;95234.94;;;16.26;28.95
68179;BME280;54998;42.656;23.382;2023-03-18T08:00:16;95231.03;;;18.54;26.34
68179;BME280;54998;42.656;23.382;2023-03-18T08:02:42;95230.13;;;19.28;25.31
68179;BME280;54998;42.656;23.382;2023-03-18T08:05:08;95224.81;;;19.21;25.10
68179;BME280;54998;42.656;23.382;2023-03-18T08:07:34;95217.69;;;17.29;27.89
68179;BME280;54998;42.656;23.382;2023-03-18T08:10:00;95213.44;;;19.65;25.26
68179;BME280;54998;42.656;23.382;2023-03-18T08:12:26;95218.63;;;19.22;24.56
68179;BME280;54998;42.656;23.382;2023-03-18T08:14:52;95228.84;;;17.06;26.95
68179;BME280;54998;42.656;23.382;2023-03-18T08:17:18;95217.31;;;18.16;27.07
68179;BME280;54998;42.656;23.382;2023-03-18T08:19:43;95229.94;;;17.35;26.68
68179;BME280;54998;42.656;23.382;2023-03-18T08:22:09;95229.63;;;16.83;27.49
68179;BME280;54998;42.656;23.382;2023-03-18T08:24:35;95235.34;;;16.54;28.24
68179;BME280;54998;42.656;23.382;2023-03-18T08:27:02;95242.28;;;15.40;29.76
68179;BME280;54998;42.656;23.382;2023-03-18T08:29:28;95232.22;;;17.61;27.34
68179;BME280;54998;42.656;23.382;2023-03-18T08:31:54;95222.84;;;16.27;28.78
68179;BME280;54998;42.656;23.382;2023-03-18T08:34:19;95220.06;;;17.99;27.58
68179;BME280;54998;42.656;23.382;2023-03-18T08:36:45;95220.66;;;19.05;25.10
68179;BME280;54998;42.656;23.382;2023-03-18T08:39:11;95219.38;;;20.72;23.12
68179;BME280;54998;42.656;23.382;2023-03-18T08:41:36;95226.06;;;19.47;24.31
68179;BME280;54998;42.656;23.382;2023-03-18T08:44:03;95220.94;;;17.45;26.40
68179;BME280;54998;42.656;23.382;2023-03-18T08:46:30;95227.44;;;15.84;29.42
68179;BME280;54998;42.656;23.382;2023-03-18T08:48:58;95217.28;;;18.01;26.56
68179;BME280;54998;42.656;23.382;2023-03-18T08:51:24;95217.03;;;17.96;26.52
68179;BME280;54998;42.656;23.382;2023-03-18T08:53:50;95220.00;;;19.18;24.83
68179;BME280;54998;42.656;23.382;2023-03-18T08:56:15;95224.03;;;19.64;24.32
68179;BME280;54998;42.656;23.382;2023-03-18T08:58:41;95221.66;;;21.57;21.18
68179;BME280;54998;42.656;23.382;2023-03-18T09:01:09;95222.03;;;22.20;20.53
68179;BME280;54998;42.656;23.382;2023-03-18T09:03:34;95219.41;;;21.47;20.78
68179;BME280;54998;42.656;23.382;2023-03-18T09:06:00;95226.78;;;20.68;22.35
68179;BME280;54998;42.656;23.382;2023-03-18T09:08:26;95217.59;;;23.12;20.22
68179;BME280;54998;42.656;23.382;2023-03-18T09:10:54;95218.44;;;22.14;20.98
68179;BME280;54998;42.656;23.382;2023-03-18T09:13:20;95216.38;;;20.40;22.26
68179;BME280;54998;42.656;23.382;2023-03-18T09:15:45;95233.25;;;19.23;24.82
68179;BME280;54998;42.656;23.382;2023-03-18T09:20:52;95227.31;;;23.05;19.68
68179;BME280;54998;42.656;23.382;2023-03-18T09:23:18;95228.03;;;23.83;19.33
68179;BME280;54998;42.656;23.382;2023-03-18T09:25:44;95225.03;;;20.41;21.15
68179;BME280;54998;42.656;23.382;2023-03-18T09:28:11;95230.00;;;19.79;22.12
68179;BME280;54998;42.656;23.382;2023-03-18T09:30:36;95228.63;;;22.63;19.88
68179;BME280;54998;42.656;23.382;2023-03-18T09:33:02;95230.41;;;20.04;21.71
68179;BME280;54998;42.656;23.382;2023-03-18T09:35:31;95232.88;;;17.09;23.20
68179;BME280;54998;42.656;23.382;2023-03-18T09:37:56;95224.19;;;15.81;26.30
68179;BME280;54998;42.656;23.382;2023-03-18T09:40:26;95226.75;;;17.01;24.86
68179;BME280;54998;42.656;23.382;2023-03-18T09:46:03;95215.84;;;17.83;23.37
68179;BME280;54998;42.656;23.382;2023-03-18T09:54:32;95215.38;;;16.32;25.78
68179;BME280;54998;42.656;23.382;2023-03-18T09:57:02;95226.06;;;16.29;25.75
68179;BME280;54998;42.656;23.382;2023-03-18T09:59:39;95219.34;;;16.51;24.65
68179;BME280;54998;42.656;23.382;2023-03-18T10:02:21;95216.69;;;16.67;25.20
68179;BME280;54998;42.656;23.382;2023-03-18T10:04:52;95214.75;;;16.61;24.72
68179;BME280;54998;42.656;23.382;2023-03-18T10:07:24;95222.44;;;14.82;26.82
68179;BME280;54998;42.656;23.382;2023-03-18T10:09:53;95223.88;;;15.93;25.31
68179;BME280;54998;42.656;23.382;2023-03-18T10:12:28;95220.94;;;16.60;24.12
68179;BME280;54998;42.656;23.382;2023-03-18T10:19:59;95215.47;;;17.86;23.04
68179;BME280;54998;42.656;23.382;2023-03-18T10:38:54;95215.03;;;14.87;23.43
68179;BME280;54998;42.656;23.382;2023-03-18T10:41:36;95211.13;;;15.83;22.73
68179;BME280;54998;42.656;23.382;2023-03-18T10:44:12;95211.75;;;16.49;21.73
68179;BME280;54998;42.656;23.382;2023-03-18T10:46:40;95205.69;;;17.28;21.24
68179;BME280;54998;42.656;23.382;2023-03-18T10:49:18;95204.84;;;18.56;20.90
68179;BME280;54998;42.656;23.382;2023-03-18T10:51:54;95193.81;;;20.54;18.44
68179;BME280;54998;42.656;23.382;2023-03-18T10:54:41;95197.88;;;20.28;18.27
68179;BME280;54998;42.656;23.382;2023-03-18T10:57:18;95187.47;;;18.12;19.71
68179;BME280;54998;42.656;23.382;2023-03-18T10:59:45;95193.66;;;18.25;19.54
68179;BME280;54998;42.656;23.382;2023-03-18T11:04:49;95196.66;;;13.25;24.71
68179;BME280;54998;42.656;23.382;2023-03-18T11:07:22;95191.13;;;11.82;27.04
68179;BME280;54998;42.656;23.382;2023-03-18T11:09:50;95185.13;;;11.24;27.30
68179;BME280;54998;42.656;23.382;2023-03-18T11:12:17;95198.53;;;10.39;28.29
68179;BME280;54998;42.656;23.382;2023-03-18T11:14:47;95198.25;;;9.80;28.96
68179;BME280;54998;42.656;23.382;2023-03-18T11:17:25;95190.84;;;9.03;30.14
68179;BME280;54998;42.656;23.382;2023-03-18T11:20:21;95198.06;;;9.51;30.05
68179;BME280;54998;42.656;23.382;2023-03-18T11:22:52;95196.78;;;10.39;29.57
68179;BME280;54998;42.656;23.382;2023-03-18T11:25:21;95198.81;;;12.01;27.07
68179;BME280;54998;42.656;23.382;2023-03-18T11:27:51;95184.63;;;12.98;26.00
68179;BME280;54998;42.656;23.382;2023-03-18T11:30:27;95172.28;;;14.16;24.46
68179;BME280;54998;42.656;23.382;2023-03-18T11:35:44;95178.09;;;14.18;23.54
68179;BME280;54998;42.656;23.382;2023-03-18T11:40:43;95186.16;;;10.73;29.70
68179;BME280;54998;42.656;23.382;2023-03-18T11:43:20;95178.66;;;10.00;31.42
68179;BME280;54998;42.656;23.382;2023-03-18T11:45:53;95183.84;;;9.05;32.63
68179;BME280;54998;42.656;23.382;2023-03-18T11:48:29;95180.38;;;11.10;29.70
68179;BME280;54998;42.656;23.382;2023-03-18T11:53:53;95178.56;;;12.26;27.07
68179;BME280;54998;42.656;23.382;2023-03-18T12:02:23;95179.09;;;11.92;28.48
68179;BME280;54998;42.656;23.382;2023-03-18T12:10:45;95179.28;;;10.83;29.65
68179;BME280;54998;42.656;23.382;2023-03-18T12:19:17;95172.53;;;12.63;27.99
68179;BME280;54998;42.656;23.382;2023-03-18T12:32:48;95178.38;;;10.03;31.67
68179;BME280;54998;42.656;23.382;2023-03-18T12:46:41;95175.22;;;10.71;28.85
68179;BME280;54998;42.656;23.382;2023-03-18T12:49:13;95171.19;;;9.97;30.44
68179;BME280;54998;42.656;23.382;2023-03-18T12:51:47;95171.03;;;9.89;31.13
68179;BME280;54998;42.656;23.382;2023-03-18T12:54:21;95173.53;;;9.79;32.20
68179;BME280;54998;42.656;23.382;2023-03-18T12:56:56;95165.94;;;9.68;32.30
68179;BME280;54998;42.656;23.382;2023-03-18T12:59:41;95157.59;;;10.37;30.65
68179;BME280;54998;42.656;23.382;2023-03-18T13:04:56;95153.28;;;9.24;30.54
68179;BME280;54998;42.656;23.382;2023-03-18T13:07:35;95160.38;;;9.21;30.20
68179;BME280;54998;42.656;23.382;2023-03-18T13:10:23;95166.72;;;10.61;28.40
68179;BME280;54998;42.656;23.382;2023-03-18T13:12:54;95159.84;;;11.20;27.73
68179;BME280;54998;42.656;23.382;2023-03-18T13:15:40;95169.63;;;10.37;28.25
68179;BME280;54998;42.656;23.382;2023-03-18T13:18:18;95168.56;;;9.15;29.75
68179;BME280;54998;42.656;23.382;2023-03-18T13:20:45;95162.44;;;8.74;30.56
68179;BME280;54998;42.656;23.382;2023-03-18T13:23:19;95170.47;;;8.80;31.21
68179;BME280;54998;42.656;23.382;2023-03-18T13:26:23;95175.47;;;9.03;30.88
68179;BME280;54998;42.656;23.382;2023-03-18T13:43:18;95173.00;;;8.03;31.32
68179;BME280;54998;42.656;23.382;2023-03-18T13:45:47;95168.00;;;8.01;31.12
68179;BME280;54998;42.656;23.382;2023-03-18T13:48:16;95160.78;;;7.95;31.64
68179;BME280;54998;42.656;23.382;2023-03-18T13:50:44;95163.78;;;8.23;31.55
68179;BME280;54998;42.656;23.382;2023-03-18T13:53:31;95161.00;;;8.49;31.51
68179;BME280;54998;42.656;23.382;2023-03-18T13:58:43;95160.88;;;8.82;30.87
68179;BME280;54998;42.656;23.382;2023-03-18T14:01:24;95150.94;;;8.68;31.33
68179;BME280;54998;42.656;23.382;2023-03-18T14:03:55;95143.97;;;8.70;31.36
68179;BME280;54998;42.656;23.382;2023-03-18T14:08:49;95146.09;;;8.86;30.80
68179;BME280;54998;42.656;23.382;2023-03-18T14:14:01;95141.97;;;8.74;30.66
68179;BME280;54998;42.656;23.382;2023-03-18T14:21:33;95147.44;;;8.69;30.32
68179;BME280;54998;42.656;23.382;2023-03-18T14:24:02;95149.34;;;8.56;29.99
68179;BME280;54998;42.656;23.382;2023-03-18T14:26:34;95142.84;;;8.52;30.21
68179;BME280;54998;42.656;23.382;2023-03-18T14:39:14;95148.25;;;7.92;31.14
68179;BME280;54998;42.656;23.382;2023-03-18T14:41:42;95148.00;;;7.73;31.68
68179;BME280;54998;42.656;23.382;2023-03-18T14:47:04;95146.38;;;8.17;31.06
68179;BME280;54998;42.656;23.382;2023-03-18T14:49:41;95150.31;;;8.21;30.86
68179;BME280;54998;42.656;23.382;2023-03-18T14:52:28;95156.03;;;8.13;30.70
68179;BME280;54998;42.656;23.382;2023-03-18T14:55:00;95159.38;;;8.25;30.53
68179;BME280;54998;42.656;23.382;2023-03-18T14:57:26;95159.63;;;8.22;29.67
68179;BME280;54998;42.656;23.382;2023-03-18T14:59:51;95157.50;;;8.27;29.78
68179;BME280;54998;42.656;23.382;2023-03-18T15:02:26;95152.16;;;8.30;29.88
68179;BME280;54998;42.656;23.382;2023-03-18T15:04:57;95155.44;;;8.10;30.07
68179;BME280;54998;42.656;23.382;2023-03-18T15:07:31;95158.22;;;8.18;30.05
68179;BME280;54998;42.656;23.382;2023-03-18T15:10:10;95165.19;;;8.16;30.43
68179;BME280;54998;42.656;23.382;2023-03-18T15:12:37;95167.88;;;8.14;30.68
68179;BME280;54998;42.656;23.382;2023-03-18T15:15:04;95167.06;;;8.14;31.45